createdAt,value
2019-04-22T00:00:36.662Z,97860.70
2019-04-22T00:03:10.545Z,97852.04
2019-04-22T00:05:56.288Z,97848.25
2019-04-22T00:08:36.288Z,97848.77
2019-04-22T00:11:04.898Z,97847.70
2019-04-22T00:13:43.897Z,97843.36
2019-04-22T00:16:01.091Z,97839.83
2019-04-22T00:18:42.859Z,97838.74
2019-04-22T00:21:12.547Z,97838.13
2019-04-22T00:23:41.868Z,97833.55
2019-04-22T00:26:12.636Z,97837.89
2019-04-22T00:28:43.725Z,97834.58
2019-04-22T00:31:40.578Z,97835.81
2019-04-22T00:34:11.181Z,97827.47
2019-04-22T00:36:51.484Z,97827.85
2019-04-22T00:39:25.433Z,97828.77
2019-04-22T00:41:53.597Z,97824.62
2019-04-22T00:44:29.820Z,97818.94
2019-04-22T00:46:55.206Z,97815.51
2019-04-22T00:50:10.906Z,97807.73
2019-04-22T00:52:01.223Z,97805.75
2019-04-22T00:54:21.402Z,97809.48
2019-04-22T00:56:53.967Z,97806.39
2019-04-22T00:59:23.354Z,97803.05
2019-04-22T01:02:00.905Z,97805.77
2019-04-22T01:04:34.774Z,97808.23
2019-04-22T01:07:00.733Z,97800.91
2019-04-22T01:09:40.163Z,97795.64
2019-04-22T01:12:07.537Z,97806.63
2019-04-22T01:14:35.630Z,97809.90
2019-04-22T01:17:05.993Z,97793.66
2019-04-22T01:19:48.265Z,97792.05
2019-04-22T01:22:12.959Z,97791.56
2019-04-22T01:24:38.678Z,97784.63
2019-04-22T01:27:07.966Z,97786.02
2019-04-22T01:29:39.714Z,97781.70
2019-04-22T01:31:58.098Z,97783.05
2019-04-22T01:34:40.092Z,97779.99
2019-04-22T01:37:20.330Z,97776.72
2019-04-22T01:40:00.146Z,97774.94
2019-04-22T01:42:24.588Z,97774.29
2019-04-22T01:44:58.167Z,97768.03
2019-04-22T01:47:31.349Z,97766.42
2019-04-22T01:49:59.817Z,97772.27
2019-04-22T01:52:31.376Z,97775.73
2019-04-22T01:57:30.415Z,97767.44
2019-04-22T02:00:00.923Z,97772.52
2019-04-22T02:02:44.057Z,97768.38
2019-04-22T02:05:15.782Z,97764.92
2019-04-22T02:07:41.946Z,97758.33
2019-04-22T02:10:14.000Z,97759.98
2019-04-22T02:15:12.497Z,97747.45
2019-04-22T02:17:47.766Z,97753.44
2019-04-22T02:20:34.711Z,97745.73
2019-04-22T02:26:03.339Z,97740.78
2019-04-22T02:28:38.304Z,97739.97
2019-04-22T02:31:23.070Z,97740.67
2019-04-22T02:43:51.861Z,97729.42
2019-04-22T02:51:16.862Z,97724.69
2019-04-22T02:54:17.213Z,97723.14
2019-04-22T03:04:03.369Z,97705.00
2019-04-22T03:08:53.761Z,97693.04
2019-04-22T03:14:00.715Z,97697.85
2019-04-22T03:21:23.861Z,97690.81
2019-04-22T03:26:31.936Z,97685.58
2019-04-22T03:28:57.071Z,97681.05
2019-04-22T03:52:11.597Z,97668.66
2019-04-22T04:02:21.600Z,97663.97
2019-04-22T04:04:43.159Z,97660.38
2019-04-22T04:10:00.994Z,97647.03
2019-04-22T04:12:24.986Z,97654.87
2019-04-22T04:15:11.664Z,97652.13
2019-04-22T04:20:05.743Z,97649.75
2019-04-22T04:22:53.782Z,97649.89
2019-04-22T04:27:49.117Z,97657.30
2019-04-22T04:30:05.500Z,97648.27
2019-04-22T04:35:19.311Z,97646.01
2019-04-22T04:45:23.989Z,97642.09
2019-04-22T04:50:06.882Z,97638.62
2019-04-22T04:55:17.527Z,97632.49
2019-04-22T05:02:44.605Z,97636.83
2019-04-22T05:05:16.715Z,97641.86
2019-04-22T05:07:47.850Z,97639.66
2019-04-22T05:10:31.491Z,97641.13
2019-04-22T05:12:52.771Z,97639.52
2019-04-22T05:15:20.491Z,97632.64
2019-04-22T05:17:52.361Z,97642.38
2019-04-22T05:20:26.575Z,97639.27
2019-04-22T05:25:19.573Z,97635.11
2019-04-22T05:27:45.349Z,97634.27
2019-04-22T05:32:52.247Z,97633.13
2019-04-22T05:37:57.990Z,97630.34
2019-04-22T05:40:24.353Z,97629.42
2019-04-22T05:42:55.996Z,97634.41
2019-04-22T05:47:59.383Z,97639.27
2019-04-22T05:50:23.909Z,97641.11
2019-04-22T05:52:55.372Z,97643.70
2019-04-22T05:58:02.783Z,97648.90
2019-04-22T06:00:40.416Z,97647.89
2019-04-22T06:03:07.001Z,97642.08
2019-04-22T06:05:35.930Z,97639.86
2019-04-22T06:08:10.238Z,97640.02
2019-04-22T06:10:45.383Z,97639.28
2019-04-22T06:13:13.972Z,97639.77
2019-04-22T06:15:37.290Z,97624.25
2019-04-22T06:18:22.584Z,97626.17
2019-04-22T06:20:59.477Z,97628.88
2019-04-22T06:23:25.644Z,97621.41
2019-04-22T06:26:05.261Z,97624.16
2019-04-22T06:28:40.638Z,97631.36
2019-04-22T06:33:26.062Z,97623.28
2019-04-22T06:38:35.891Z,97626.69
2019-04-22T06:41:05.798Z,97622.59
2019-04-22T06:46:06.304Z,97621.75
2019-04-22T06:48:30.103Z,97619.96
2019-04-22T06:51:05.223Z,97624.61
2019-04-22T06:53:37.445Z,97610.69
2019-04-22T06:56:06.660Z,97616.95
2019-04-22T06:58:41.061Z,97612.95
2019-04-22T07:01:15.771Z,97608.13
2019-04-22T07:06:17.606Z,97612.69
2019-04-22T07:09:06.009Z,97600.53
2019-04-22T07:11:06.247Z,97608.87
2019-04-22T07:14:00.229Z,97593.48
2019-04-22T07:16:18.745Z,97601.43
2019-04-22T07:19:01.906Z,97594.73
2019-04-22T07:21:12.691Z,97593.02
2019-04-22T07:24:20.058Z,97585.66
2019-04-22T07:26:29.100Z,97581.55
2019-04-22T07:28:49.833Z,97577.73
2019-04-22T07:31:20.920Z,97574.92
2019-04-22T07:33:51.380Z,97577.63
2019-04-22T07:38:50.789Z,97576.11
2019-04-22T07:41:27.012Z,97572.77
2019-04-22T07:48:57.644Z,97558.69
2019-04-22T07:51:32.709Z,97559.52
2019-04-22T07:54:01.071Z,97563.56
2019-04-22T07:56:31.748Z,97562.03
2019-04-22T07:59:07.369Z,97557.11
2019-04-22T08:01:30.843Z,97547.33
2019-04-22T08:06:43.569Z,97540.98
2019-04-22T08:09:13.917Z,97543.12
2019-04-22T08:14:10.487Z,97536.89
2019-04-22T08:16:43.924Z,97537.17
2019-04-22T08:19:15.757Z,97535.61
2019-04-22T08:21:45.476Z,97520.70
2019-04-22T08:24:17.865Z,97529.30
2019-04-22T08:26:46.739Z,97533.98
2019-04-22T08:29:19.125Z,97521.93
2019-04-22T08:31:49.233Z,97515.13
2019-04-22T08:34:23.328Z,97514.67
2019-04-22T08:37:12.012Z,97503.48
2019-04-22T08:39:18.678Z,97506.48
2019-04-22T08:41:51.288Z,97506.48
2019-04-22T08:44:27.941Z,97494.22
2019-04-22T08:46:57.865Z,97501.27
2019-04-22T08:49:30.191Z,97495.08
2019-04-22T08:51:55.676Z,97495.03
2019-04-22T08:54:27.864Z,97489.69
2019-04-22T08:56:58.297Z,97486.31
2019-04-22T08:59:21.799Z,97482.28
2019-04-22T09:01:59.359Z,97486.00
2019-04-22T09:04:27.875Z,97484.89
2019-04-22T09:07:16.634Z,97474.16
2019-04-22T09:09:34.040Z,97471.95
2019-04-22T09:12:07.869Z,97463.46
2019-04-22T09:14:40.627Z,97471.62
2019-04-22T09:17:13.336Z,97459.48
2019-04-22T09:19:35.229Z,97463.33
2019-04-22T09:22:11.258Z,97458.97
2019-04-22T09:24:43.852Z,97451.16
2019-04-22T09:27:22.493Z,97448.52
2019-04-22T09:32:24.858Z,97444.70
2019-04-22T09:34:47.337Z,97447.52
2019-04-22T09:37:21.030Z,97436.95
2019-04-22T09:39:52.229Z,97423.41
2019-04-22T09:42:17.446Z,97423.41
2019-04-22T09:44:47.311Z,97418.55
2019-04-22T09:47:19.254Z,97419.20
2019-04-22T09:49:55.253Z,97414.39
2019-04-22T09:52:20.639Z,97410.52
2019-04-22T09:55:01.578Z,97411.17
2019-04-22T09:57:24.665Z,97406.61
2019-04-22T10:00:10.906Z,97402.02
2019-04-22T10:05:00.147Z,97392.84
2019-04-22T10:07:32.466Z,97389.36
2019-04-22T10:10:14.367Z,97379.51
2019-04-22T10:15:00.529Z,97383.03
2019-04-22T10:17:32.258Z,97373.91
2019-04-22T10:20:06.706Z,97367.21
2019-04-22T10:22:39.361Z,97364.02
2019-04-22T10:25:08.264Z,97361.33
2019-04-22T10:27:45.623Z,97355.16
2019-04-22T10:30:04.573Z,97351.09
2019-04-22T10:32:39.609Z,97347.80
2019-04-22T10:35:09.300Z,97339.56
2019-04-22T10:37:36.586Z,97338.44
2019-04-22T10:40:09.874Z,97325.02
2019-04-22T10:42:43.379Z,97325.95
2019-04-22T10:45:14.499Z,97321.08
2019-04-22T10:47:43.870Z,97314.83
2019-04-22T10:50:14.692Z,97308.91
2019-04-22T10:52:43.926Z,97306.62
2019-04-22T10:55:13.802Z,97299.83
2019-04-22T10:57:44.244Z,97293.66
2019-04-22T11:00:15.452Z,97303.07
2019-04-22T11:02:45.700Z,97294.01
2019-04-22T11:05:16.684Z,97287.89
2019-04-22T11:07:53.898Z,97284.43
2019-04-22T11:10:34.602Z,97276.95
2019-04-22T11:12:49.367Z,97269.82
2019-04-22T11:15:19.272Z,97268.66
2019-04-22T11:17:49.516Z,97258.84
2019-04-22T11:20:19.879Z,97259.41
2019-04-22T11:22:50.936Z,97258.81
2019-04-22T11:25:21.654Z,97256.01
2019-04-22T11:27:51.448Z,97262.23
2019-04-22T11:30:24.196Z,97253.95
2019-04-22T11:32:54.108Z,97246.21
2019-04-22T11:35:23.859Z,97245.77
2019-04-22T11:37:53.113Z,97240.28
2019-04-22T11:40:28.560Z,97237.45
2019-04-22T11:42:54.463Z,97226.06
2019-04-22T11:45:24.090Z,97225.48
2019-04-22T11:47:55.173Z,97227.75
2019-04-22T11:50:26.121Z,97226.99
2019-04-22T11:52:55.930Z,97221.89
2019-04-22T11:55:28.654Z,97212.84
2019-04-22T11:57:56.493Z,97212.39
2019-04-22T12:00:31.005Z,97214.52
2019-04-22T12:03:01.083Z,97211.85
2019-04-22T12:05:30.316Z,97202.23
2019-04-22T12:07:59.561Z,97206.73
2019-04-22T12:10:39.717Z,97192.21
2019-04-22T12:13:02.101Z,97194.53
2019-04-22T12:15:32.902Z,97186.56
2019-04-22T12:18:03.707Z,97187.15
2019-04-22T12:20:33.103Z,97180.65
2019-04-22T12:23:03.239Z,97173.06
2019-04-22T12:25:43.371Z,97167.13
2019-04-22T12:28:03.675Z,97162.52
2019-04-22T12:30:33.396Z,97165.23
2019-04-22T12:33:04.275Z,97156.45
2019-04-22T12:35:34.622Z,97153.72
2019-04-22T12:38:08.436Z,97149.53
2019-04-22T12:40:42.463Z,97140.52
2019-04-22T12:43:08.708Z,97133.57
2019-04-22T12:45:38.580Z,97133.94
2019-04-22T12:48:08.714Z,97129.53
2019-04-22T12:50:43.419Z,97127.56
2019-04-22T12:53:13.862Z,97120.77
2019-04-22T12:55:42.029Z,97118.50
2019-04-22T12:58:11.846Z,97115.78
2019-04-22T13:00:44.929Z,97112.42
2019-04-22T13:03:14.344Z,97107.86
2019-04-22T13:05:45.150Z,97105.98
2019-04-22T13:08:15.727Z,97098.88
2019-04-22T13:10:53.336Z,97095.83
2019-04-22T13:13:16.149Z,97098.02
2019-04-22T13:15:46.795Z,97093.88
2019-04-22T13:18:24.832Z,97094.19
2019-04-22T13:20:48.479Z,97084.08
2019-04-22T13:23:18.149Z,97083.09
2019-04-22T13:25:49.099Z,97078.34
2019-04-22T13:28:19.075Z,97077.19
2019-04-22T13:30:48.672Z,97062.11
2019-04-22T13:33:19.174Z,97066.72
2019-04-22T13:35:49.856Z,97073.95
2019-04-22T13:38:19.290Z,97072.59
2019-04-22T13:41:00.932Z,97051.97
2019-04-22T13:43:20.769Z,97048.23
2019-04-22T13:45:50.162Z,97045.56
2019-04-22T13:48:38.208Z,97052.85
2019-04-22T13:51:20.797Z,97048.09
2019-04-22T13:54:27.246Z,97037.23
2019-04-22T13:56:13.157Z,97034.95
2019-04-22T13:58:35.762Z,97030.52
2019-04-22T14:00:56.652Z,97026.63
2019-04-22T14:03:52.222Z,97038.52
2019-04-22T14:06:22.665Z,97031.31
2019-04-22T14:08:53.328Z,97014.41
2019-04-22T14:11:34.561Z,97014.47
2019-04-22T14:13:53.696Z,97013.64
2019-04-22T14:16:24.518Z,97006.33
2019-04-22T14:18:54.034Z,97001.51
2019-04-22T14:21:23.277Z,97020.36
2019-04-22T14:23:56.427Z,97007.12
2019-04-22T14:26:27.102Z,97002.01
2019-04-22T14:28:57.551Z,97003.15
2019-04-22T14:31:26.944Z,96990.75
2019-04-22T14:34:01.366Z,96992.65
2019-04-22T14:36:27.595Z,96999.85
2019-04-22T14:38:57.786Z,96974.80
2019-04-22T14:41:42.362Z,96991.32
2019-04-22T14:45:04.982Z,96977.64
2019-04-22T14:47:05.768Z,96974.17
2019-04-22T14:49:24.078Z,96974.82
2019-04-22T14:51:55.062Z,96966.70
2019-04-22T14:54:19.445Z,96965.73
2019-04-22T15:47:50.219Z,96944.41
2019-04-22T15:50:19.639Z,96940.00
2019-04-22T15:52:53.034Z,96938.61
2019-04-22T15:55:20.736Z,96944.70
2019-04-22T15:57:50.097Z,96943.66
2019-04-22T16:00:33.157Z,96933.27
2019-04-22T16:02:51.967Z,96934.83
2019-04-22T16:05:22.519Z,96935.28
2019-04-22T16:07:52.961Z,96930.16
2019-04-22T16:10:23.820Z,96932.05
2019-04-22T16:13:03.520Z,96926.60
2019-04-22T16:15:24.729Z,96923.36
2019-04-22T16:17:54.987Z,96930.45
2019-04-22T16:20:26.036Z,96925.78
2019-04-22T16:23:20.277Z,96920.69
2019-04-22T16:26:03.103Z,96921.89
2019-04-22T16:28:33.449Z,96925.02
2019-04-22T16:31:03.847Z,96920.36
2019-04-22T16:33:38.387Z,96918.94
2019-04-22T16:36:07.078Z,96921.45
2019-04-22T16:38:37.244Z,96922.22
2019-04-22T16:41:06.801Z,96911.20
2019-04-22T16:43:36.610Z,96913.36
2019-04-22T16:46:09.736Z,96922.42
2019-04-22T16:48:39.963Z,96914.41
2019-04-22T16:51:09.890Z,96907.16
2019-04-22T16:53:39.312Z,96907.95
2019-04-22T16:56:08.869Z,96908.75
2019-04-22T16:58:38.857Z,96916.48
2019-04-22T17:01:20.740Z,96911.66
2019-04-22T17:04:16.513Z,96913.03
2019-04-22T17:06:46.011Z,96913.39
2019-04-22T17:09:17.611Z,96910.66
2019-04-22T17:11:47.784Z,96913.06
2019-04-22T17:14:25.427Z,96912.61
2019-04-22T17:16:48.620Z,96912.74
2019-04-22T17:19:19.259Z,96923.59
2019-04-22T17:21:49.951Z,96914.48
2019-04-22T17:24:21.799Z,96924.59
2019-04-22T17:26:52.997Z,96926.41
2019-04-22T17:29:22.811Z,96919.42
2019-04-22T17:31:58.391Z,96926.74
2019-04-22T17:34:23.488Z,96922.22
2019-04-22T17:36:53.207Z,96929.14
2019-04-22T17:39:40.414Z,96928.12
2019-04-22T17:42:14.015Z,96925.15
2019-04-22T17:44:48.140Z,96924.84
2019-04-22T17:47:29.026Z,96975.78
2019-04-22T17:50:11.734Z,96933.64
2019-04-22T17:52:42.343Z,96929.82
2019-04-22T17:55:11.326Z,96935.20
2019-04-22T17:57:39.383Z,96935.34
2019-04-22T18:00:11.271Z,96931.02
2019-04-22T18:02:43.007Z,96936.75
2019-04-22T18:05:01.991Z,96939.66
2019-04-22T18:07:49.313Z,96939.21
2019-04-22T18:13:01.740Z,96939.78
2019-04-22T18:15:23.869Z,96948.72
2019-04-22T18:18:00.536Z,96938.85
2019-04-22T18:20:25.430Z,96944.84
2019-04-22T18:22:49.035Z,96940.93
2019-04-22T18:25:20.349Z,96946.32
2019-04-22T18:28:09.060Z,96949.53
2019-04-22T18:30:24.200Z,96950.60
2019-04-22T18:32:57.059Z,96955.67
2019-04-22T18:35:30.856Z,96953.67
2019-04-22T18:38:11.314Z,96962.84
2019-04-22T18:40:36.296Z,96961.63
2019-04-22T18:43:09.950Z,96967.39
2019-04-22T18:48:03.948Z,96966.34
2019-04-22T18:51:09.605Z,96968.17
2019-04-22T18:53:48.379Z,96971.12
2019-04-22T18:56:19.227Z,96968.37
2019-04-22T18:58:42.114Z,96975.24
2019-04-22T19:00:59.684Z,96972.08
2019-04-22T19:03:32.153Z,96980.45
2019-04-22T19:06:32.286Z,96974.52
2019-04-22T19:08:55.499Z,96979.79
2019-04-22T19:11:20.885Z,96977.55
2019-04-22T19:14:17.600Z,96984.14
2019-04-22T19:16:43.355Z,96984.59
2019-04-22T19:19:17.835Z,96981.22
2019-04-22T19:21:26.029Z,96984.56
2019-04-22T19:23:54.070Z,96979.81
2019-04-22T19:26:48.241Z,96978.56
2019-04-22T19:29:03.899Z,96980.08
2019-04-22T19:31:34.710Z,96979.17
2019-04-22T19:34:03.023Z,96978.16
2019-04-22T19:36:43.538Z,96981.19
2019-04-22T19:39:07.992Z,96985.00
2019-04-22T19:41:42.260Z,96981.97
2019-04-22T19:44:13.170Z,96985.84
2019-04-22T19:46:43.469Z,96984.41
2019-04-22T19:49:17.050Z,96980.97
2019-04-22T19:51:53.917Z,96976.41
2019-04-22T19:54:14.045Z,96976.15
2019-04-22T19:56:38.387Z,96978.64
2019-04-22T19:59:15.002Z,96973.27
2019-04-22T20:02:00.964Z,96972.34
2019-04-22T20:04:59.645Z,96975.04
2019-04-22T20:07:40.097Z,96966.86
2019-04-22T20:10:17.218Z,96963.18
2019-04-22T20:12:42.894Z,96963.84
2019-04-22T20:15:17.025Z,96966.59
2019-04-22T20:18:08.615Z,96961.25
2019-04-22T20:20:24.582Z,96958.56
2019-04-22T20:22:49.443Z,96959.13
2019-04-22T20:25:12.351Z,96946.98
2019-04-22T20:27:54.690Z,96945.50
2019-04-22T20:30:29.290Z,96947.45
2019-04-22T20:32:52.461Z,96938.66
2019-04-22T20:35:28.114Z,96933.44
2019-04-22T20:37:56.759Z,96928.86
2019-04-22T20:40:36.104Z,96930.72
2019-04-22T20:43:09.165Z,96926.95
2019-04-22T20:45:35.155Z,96922.42
2019-04-22T20:47:58.809Z,96924.85
2019-04-22T20:50:37.333Z,96923.77
2019-04-22T20:53:13.390Z,96923.96
2019-04-22T20:55:36.853Z,96925.03
2019-04-22T20:58:12.214Z,96919.70
2019-04-22T21:00:36.573Z,96921.45
2019-04-22T21:03:03.233Z,96917.41
2019-04-22T21:05:34.182Z,96917.27
2019-04-22T21:08:19.020Z,96917.86
2019-04-22T21:10:42.568Z,96913.87
2019-04-22T21:13:11.121Z,96914.16
2019-04-22T21:15:49.378Z,96911.53
2019-04-22T21:18:15.115Z,96905.92
2019-04-22T21:20:59.250Z,96902.11
2019-04-22T21:23:21.380Z,96896.43
2019-04-22T21:25:47.424Z,96896.31
2019-04-22T21:28:31.205Z,96901.73
2019-04-22T21:30:55.160Z,96897.55
2019-04-22T21:33:23.588Z,96896.75
2019-04-22T21:36:25.120Z,96882.98
2019-04-22T21:38:40.386Z,96873.51
2019-04-22T21:41:10.014Z,96871.19
2019-04-22T21:43:42.530Z,96867.14
2019-04-22T21:46:13.432Z,96862.50
2019-04-22T21:48:42.652Z,96860.78
2019-04-22T21:51:19.198Z,96856.51
2019-04-22T21:53:55.499Z,96856.51
2019-04-22T21:56:34.905Z,96850.27
2019-04-22T21:58:50.670Z,96858.34
2019-04-22T22:01:38.123Z,96848.44
2019-04-22T22:04:03.311Z,96844.13
2019-04-22T22:06:23.567Z,96836.66
2019-04-22T22:09:05.839Z,96839.13
2019-04-22T22:11:35.135Z,96837.02
2019-04-22T22:14:02.441Z,96839.11
2019-04-22T22:16:33.573Z,96833.51
2019-04-22T22:19:08.169Z,96828.98
2019-04-22T22:21:48.349Z,96823.67
2019-04-22T22:24:08.961Z,96823.75
2019-04-22T22:26:44.788Z,96820.23
2019-04-22T22:29:20.196Z,96814.63
2019-04-22T22:31:47.063Z,96806.56
2019-04-22T22:34:19.163Z,96808.56
2019-04-22T22:36:42.151Z,96807.14
2019-04-22T22:39:13.264Z,96803.48
2019-04-22T22:41:27.878Z,96797.89
2019-04-22T22:44:06.956Z,96797.59
2019-04-22T22:46:39.229Z,96790.14
2019-04-22T22:49:22.955Z,96786.48
2019-04-22T22:51:53.250Z,96788.39
2019-04-22T22:54:25.144Z,96786.30
2019-04-22T22:56:59.678Z,96782.27
2019-04-22T22:59:27.536Z,96785.20
2019-04-22T23:01:54.510Z,96780.92
2019-04-22T23:04:34.233Z,96782.03
2019-04-22T23:07:00.422Z,96781.25
2019-04-22T23:09:30.608Z,96775.94
2019-04-22T23:14:32.741Z,96773.38
2019-04-22T23:16:51.443Z,96763.70
2019-04-22T23:19:15.698Z,96761.61
2019-04-22T23:21:49.962Z,96763.30
2019-04-22T23:24:50.109Z,96755.78
2019-04-22T23:27:27.309Z,96758.34
2019-04-22T23:30:01.195Z,96752.41
2019-04-22T23:32:31.931Z,96750.80
2019-04-22T23:35:14.434Z,96760.20
2019-04-22T23:37:47.580Z,96752.75
2019-04-22T23:40:29.689Z,96748.78
2019-04-22T23:42:53.032Z,96745.91
2019-04-22T23:45:27.051Z,96742.99
2019-04-22T23:47:43.493Z,96733.42
2019-04-22T23:50:26.691Z,96730.03
2019-04-22T23:53:00.576Z,96721.21
2019-04-22T23:55:33.449Z,96718.05
2019-04-22T23:58:02.690Z,96722.84
